sensor_id;sensor_type;location;lat;lon;timestamp;pressure;altitude;pressure_sealevel;temperature;humidity
64753;BME280;61095;52.454;16.948;2022-07-23T02:03:16;100589.84;;;19.60;62.76
64753;BME280;61095;52.454;16.948;2022-07-23T02:08:16;100590.25;;;19.54;62.81
64753;BME280;61095;52.454;16.948;2022-07-23T02:13:14;100587.94;;;19.48;62.90
64753;BME280;61095;52.454;16.948;2022-07-23T02:18:13;100591.88;;;19.43;62.82
64753;BME280;61095;52.454;16.948;2022-07-23T02:23:13;100603.28;;;19.32;64.06
64753;BME280;61095;52.454;16.948;2022-07-23T02:28:12;100606.47;;;19.24;63.71
64753;BME280;61095;52.454;16.948;2022-07-23T02:33:11;100601.13;;;19.24;63.50
64753;BME280;61095;52.454;16.948;2022-07-23T02:38:09;100595.88;;;19.23;63.62
64753;BME280;61095;52.454;16.948;2022-07-23T02:43:09;100596.94;;;19.20;64.30
64753;BME280;61095;52.454;16.948;2022-07-23T02:48:08;100578.09;;;19.22;64.39
64753;BME280;61095;52.454;16.948;2022-07-23T02:53:09;100567.91;;;19.14;64.64
64753;BME280;61095;52.454;16.948;2022-07-23T02:58:09;100567.53;;;19.06;65.26
64753;BME280;61095;52.454;16.948;2022-07-23T03:03:08;100572.22;;;19.02;65.02
64753;BME280;61095;52.454;16.948;2022-07-23T03:08:07;100578.03;;;19.09;64.80
64753;BME280;61095;52.454;16.948;2022-07-23T03:13:05;100579.94;;;19.21;65.23
64753;BME280;61095;52.454;16.948;2022-07-23T03:18:05;100583.41;;;19.36;65.34
64753;BME280;61095;52.454;16.948;2022-07-23T03:23:04;100583.06;;;19.55;64.61
64753;BME280;61095;52.454;16.948;2022-07-23T03:28:03;100583.69;;;19.73;64.30
64753;BME280;61095;52.454;16.948;2022-07-23T03:33:02;100570.00;;;19.90;64.27
64753;BME280;61095;52.454;16.948;2022-07-23T03:38:02;100582.09;;;19.95;64.08
64753;BME280;61095;52.454;16.948;2022-07-23T03:43:01;100580.44;;;20.07;63.39
64753;BME280;61095;52.454;16.948;2022-07-23T03:48:00;100576.97;;;20.05;63.07
64753;BME280;61095;52.454;16.948;2022-07-23T03:52:58;100570.69;;;20.19;62.86
64753;BME280;61095;52.454;16.948;2022-07-23T03:57:58;100584.63;;;20.24;63.02
64753;BME280;61095;52.454;16.948;2022-07-23T04:02:57;100575.50;;;20.52;62.64
64753;BME280;61095;52.454;16.948;2022-07-23T04:07:55;100584.84;;;20.72;61.92
64753;BME280;61095;52.454;16.948;2022-07-23T04:12:54;100569.16;;;20.78;61.63
64753;BME280;61095;52.454;16.948;2022-07-23T04:17:54;100577.19;;;20.91;61.61
64753;BME280;61095;52.454;16.948;2022-07-23T04:22:53;100578.28;;;21.25;61.21
64753;BME280;61095;52.454;16.948;2022-07-23T04:27:51;100566.66;;;21.61;60.53
64753;BME280;61095;52.454;16.948;2022-07-23T04:32:50;100573.41;;;22.02;59.78
64753;BME280;61095;52.454;16.948;2022-07-23T04:37:50;100566.53;;;22.55;59.41
64753;BME280;61095;52.454;16.948;2022-07-23T04:42:48;100556.63;;;23.00;58.26
64753;BME280;61095;52.454;16.948;2022-07-23T04:47:47;100546.75;;;23.44;57.49
64753;BME280;61095;52.454;16.948;2022-07-23T04:52:46;100545.09;;;23.85;56.18
64753;BME280;61095;52.454;16.948;2022-07-23T04:57:46;100538.78;;;24.16;54.59
64753;BME280;61095;52.454;16.948;2022-07-23T05:02:44;100534.97;;;24.40;54.67
64753;BME280;61095;52.454;16.948;2022-07-23T05:07:43;100523.50;;;24.47;53.84
64753;BME280;61095;52.454;16.948;2022-07-23T05:12:41;100515.78;;;24.73;53.41
64753;BME280;61095;52.454;16.948;2022-07-23T05:17:41;100519.91;;;24.77;53.13
64753;BME280;61095;52.454;16.948;2022-07-23T05:22:40;100500.50;;;24.93;53.05
64753;BME280;61095;52.454;16.948;2022-07-23T05:27:39;100497.25;;;25.18;52.93
64753;BME280;61095;52.454;16.948;2022-07-23T05:32:37;100500.03;;;25.47;52.38
64753;BME280;61095;52.454;16.948;2022-07-23T05:37:37;100493.47;;;25.79;51.26
64753;BME280;61095;52.454;16.948;2022-07-23T05:42:37;100481.34;;;25.93;50.92
64753;BME280;61095;52.454;16.948;2022-07-23T05:47:40;100473.66;;;25.88;50.44
64753;BME280;61095;52.454;16.948;2022-07-23T05:52:41;100472.94;;;25.96;50.63
64753;BME280;61095;52.454;16.948;2022-07-23T05:57:40;100470.25;;;26.33;50.35
64753;BME280;61095;52.454;16.948;2022-07-23T06:02:38;100468.66;;;26.77;49.76
64753;BME280;61095;52.454;16.948;2022-07-23T06:07:37;100461.31;;;26.87;49.22
64753;BME280;61095;52.454;16.948;2022-07-23T06:12:37;100457.59;;;27.06;48.43
64753;BME280;61095;52.454;16.948;2022-07-23T06:17:36;100453.59;;;27.45;48.37
64753;BME280;61095;52.454;16.948;2022-07-23T06:22:36;100460.31;;;27.59;47.91
64753;BME280;61095;52.454;16.948;2022-07-23T06:27:35;100453.34;;;28.00;47.40
64753;BME280;61095;52.454;16.948;2022-07-23T06:32:35;100461.22;;;28.12;46.44
64753;BME280;61095;52.454;16.948;2022-07-23T06:37:34;100443.25;;;28.45;45.68
64753;BME280;61095;52.454;16.948;2022-07-23T06:42:32;100457.00;;;28.51;45.23
64753;BME280;61095;52.454;16.948;2022-07-23T06:47:35;100462.56;;;28.42;44.54
64753;BME280;61095;52.454;16.948;2022-07-23T06:52:34;100460.06;;;28.48;44.46
64753;BME280;61095;52.454;16.948;2022-07-23T06:57:32;100450.22;;;28.13;44.90
64753;BME280;61095;52.454;16.948;2022-07-23T07:02:31;100448.56;;;28.28;44.25
64753;BME280;61095;52.454;16.948;2022-07-23T07:07:31;100455.97;;;28.44;44.24
64753;BME280;61095;52.454;16.948;2022-07-23T07:12:30;100453.53;;;28.07;44.29
64753;BME280;61095;52.454;16.948;2022-07-23T07:17:28;100451.25;;;27.94;44.52
64753;BME280;61095;52.454;16.948;2022-07-23T07:22:28;100439.19;;;27.89;44.56
64753;BME280;61095;52.454;16.948;2022-07-23T07:27:28;100448.69;;;27.67;44.92
64753;BME280;61095;52.454;16.948;2022-07-23T07:32:27;100461.28;;;27.32;45.42
64753;BME280;61095;52.454;16.948;2022-07-23T07:37:25;100470.22;;;27.51;45.06
64753;BME280;61095;52.454;16.948;2022-07-23T07:42:24;100470.88;;;27.44;45.10
64753;BME280;61095;52.454;16.948;2022-07-23T07:47:24;100471.19;;;27.41;45.02
64753;BME280;61095;52.454;16.948;2022-07-23T07:52:23;100475.06;;;27.39;45.01
64753;BME280;61095;52.454;16.948;2022-07-23T07:57:21;100478.53;;;27.31;45.16
64753;BME280;61095;52.454;16.948;2022-07-23T08:02:20;100467.63;;;27.23;45.01
64753;BME280;61095;52.454;16.948;2022-07-23T08:07:20;100475.53;;;27.17;44.80
64753;BME280;61095;52.454;16.948;2022-07-23T08:12:19;100504.72;;;27.13;45.07
64753;BME280;61095;52.454;16.948;2022-07-23T08:17:17;100540.00;;;27.03;45.25
64753;BME280;61095;52.454;16.948;2022-07-23T08:22:16;100555.31;;;26.95;45.59
64753;BME280;61095;52.454;16.948;2022-07-23T08:27:16;100542.75;;;26.76;47.45
64753;BME280;61095;52.454;16.948;2022-07-23T08:32:14;100539.53;;;26.53;49.18
64753;BME280;61095;52.454;16.948;2022-07-23T08:37:13;100533.66;;;26.30;50.17
64753;BME280;61095;52.454;16.948;2022-07-23T08:42:13;100548.50;;;26.07;51.87
64753;BME280;61095;52.454;16.948;2022-07-23T08:47:14;100554.91;;;25.86;52.83
64753;BME280;61095;52.454;16.948;2022-07-23T08:52:14;100561.47;;;25.74;53.10
64753;BME280;61095;52.454;16.948;2022-07-23T08:57:14;100543.38;;;25.65;53.59
64753;BME280;61095;52.454;16.948;2022-07-23T09:02:14;100525.31;;;25.66;53.39
64753;BME280;61095;52.454;16.948;2022-07-23T09:07:13;100542.81;;;25.52;53.58
64753;BME280;61095;52.454;16.948;2022-07-23T09:12:12;100555.91;;;25.37;53.86
64753;BME280;61095;52.454;16.948;2022-07-23T09:17:14;100518.59;;;25.21;54.25
64753;BME280;61095;52.454;16.948;2022-07-23T09:22:17;100539.44;;;24.90;55.82
64753;BME280;61095;52.454;16.948;2022-07-23T09:27:16;100569.34;;;24.78;55.71
64753;BME280;61095;52.454;16.948;2022-07-23T09:32:16;100578.91;;;24.61;57.42
64753;BME280;61095;52.454;16.948;2022-07-23T09:37:16;100583.00;;;24.55;57.36
64753;BME280;61095;52.454;16.948;2022-07-23T09:42:17;100583.09;;;24.44;57.80
64753;BME280;61095;52.454;16.948;2022-07-23T09:47:18;100568.00;;;24.32;58.68
64753;BME280;61095;52.454;16.948;2022-07-23T09:52:25;100567.34;;;24.19;59.53
64753;BME280;61095;52.454;16.948;2022-07-23T09:57:25;100558.91;;;24.12;58.30
64753;BME280;61095;52.454;16.948;2022-07-23T10:02:27;100551.19;;;23.98;59.37
64753;BME280;61095;52.454;16.948;2022-07-23T10:07:27;100540.31;;;23.88;59.19
64753;BME280;61095;52.454;16.948;2022-07-23T10:12:27;100543.03;;;23.77;58.99
64753;BME280;61095;52.454;16.948;2022-07-23T10:17:36;100551.31;;;23.64;60.13
64753;BME280;61095;52.454;16.948;2022-07-23T10:22:37;100560.63;;;23.60;59.97
64753;BME280;61095;52.454;16.948;2022-07-23T10:27:47;100549.13;;;23.58;60.50
64753;BME280;61095;52.454;16.948;2022-07-23T10:33:00;100545.00;;;23.54;60.94
64753;BME280;61095;52.454;16.948;2022-07-23T10:38:13;100546.22;;;23.50;60.38
64753;BME280;61095;52.454;16.948;2022-07-23T10:43:15;100530.13;;;23.39;60.80
64753;BME280;61095;52.454;16.948;2022-07-23T10:48:16;100528.53;;;23.25;60.77
64753;BME280;61095;52.454;16.948;2022-07-23T10:53:17;100522.53;;;23.22;60.94
64753;BME280;61095;52.454;16.948;2022-07-23T10:58:20;100523.69;;;23.08;61.68
64753;BME280;61095;52.454;16.948;2022-07-23T11:03:35;100504.16;;;22.84;62.84
64753;BME280;61095;52.454;16.948;2022-07-23T11:08:36;100515.44;;;22.66;62.61
64753;BME280;61095;52.454;16.948;2022-07-23T11:13:46;100509.94;;;22.57;63.92
64753;BME280;61095;52.454;16.948;2022-07-23T11:19:07;100516.63;;;22.40;65.11
64753;BME280;61095;52.454;16.948;2022-07-23T11:24:08;100520.06;;;22.42;64.58
64753;BME280;61095;52.454;16.948;2022-07-23T11:29:41;100521.31;;;22.49;65.47
64753;BME280;61095;52.454;16.948;2022-07-23T11:34:43;100536.09;;;22.55;64.65
64753;BME280;61095;52.454;16.948;2022-07-23T11:39:46;100527.56;;;22.61;63.95
64753;BME280;61095;52.454;16.948;2022-07-23T11:44:46;100529.00;;;22.76;63.64
64753;BME280;61095;52.454;16.948;2022-07-23T11:49:53;100530.69;;;22.88;64.95
64753;BME280;61095;52.454;16.948;2022-07-23T11:54:54;100517.84;;;23.03;63.84
64753;BME280;61095;52.454;16.948;2022-07-23T11:59:55;100518.91;;;23.12;64.10
64753;BME280;61095;52.454;16.948;2022-07-23T12:04:55;100531.59;;;23.32;63.12
64753;BME280;61095;52.454;16.948;2022-07-23T12:09:56;100530.72;;;23.43;62.69
64753;BME280;61095;52.454;16.948;2022-07-23T12:14:57;100534.03;;;23.67;61.40
64753;BME280;61095;52.454;16.948;2022-07-23T12:19:59;100534.75;;;23.69;60.36
64753;BME280;61095;52.454;16.948;2022-07-23T12:25:00;100532.66;;;23.72;60.11
64753;BME280;61095;52.454;16.948;2022-07-23T12:30:18;100519.91;;;23.75;59.54
64753;BME280;61095;52.454;16.948;2022-07-23T12:35:18;100509.25;;;23.73;59.54
64753;BME280;61095;52.454;16.948;2022-07-23T12:40:35;100464.50;;;23.61;59.20
64753;BME280;61095;52.454;16.948;2022-07-23T12:45:49;100493.59;;;23.67;59.59
64753;BME280;61095;52.454;16.948;2022-07-23T12:50:52;100495.72;;;23.84;59.56
64753;BME280;61095;52.454;16.948;2022-07-23T12:55:58;100510.97;;;23.95;59.47
64753;BME280;61095;52.454;16.948;2022-07-23T13:01:00;100499.09;;;23.97;59.30
64753;BME280;61095;52.454;16.948;2022-07-23T13:06:02;100502.13;;;24.04;58.76
64753;BME280;61095;52.454;16.948;2022-07-23T13:11:02;100501.31;;;24.13;59.08
64753;BME280;61095;52.454;16.948;2022-07-23T13:16:01;100511.16;;;24.24;58.99
64753;BME280;61095;52.454;16.948;2022-07-23T13:21:01;100519.50;;;24.21;59.59
64753;BME280;61095;52.454;16.948;2022-07-23T13:26:00;100515.50;;;24.36;59.30
64753;BME280;61095;52.454;16.948;2022-07-23T13:30:59;100519.22;;;24.45;59.35
64753;BME280;61095;52.454;16.948;2022-07-23T13:35:58;100531.31;;;24.50;59.03
64753;BME280;61095;52.454;16.948;2022-07-23T13:40:58;100531.88;;;24.54;58.66
64753;BME280;61095;52.454;16.948;2022-07-23T13:45:57;100516.13;;;24.59;58.03
64753;BME280;61095;52.454;16.948;2022-07-23T13:50:56;100526.50;;;24.54;57.50
64753;BME280;61095;52.454;16.948;2022-07-23T13:55:55;100525.31;;;24.47;57.29
64753;BME280;61095;52.454;16.948;2022-07-23T14:00:56;100531.00;;;24.44;56.59
64753;BME280;61095;52.454;16.948;2022-07-23T14:05:54;100540.88;;;24.33;56.70
64753;BME280;61095;52.454;16.948;2022-07-23T14:10:53;100535.81;;;24.19;57.33
64753;BME280;61095;52.454;16.948;2022-07-23T14:15:52;100535.25;;;24.16;57.55
64753;BME280;61095;52.454;16.948;2022-07-23T14:20:52;100526.16;;;24.17;57.45
64753;BME280;61095;52.454;16.948;2022-07-23T14:25:51;100526.84;;;24.09;57.70
64753;BME280;61095;52.454;16.948;2022-07-23T14:30:50;100542.41;;;24.06;57.91
64753;BME280;61095;52.454;16.948;2022-07-23T14:35:48;100520.53;;;23.99;58.21
64753;BME280;61095;52.454;16.948;2022-07-23T14:40:48;100540.53;;;23.96;57.80
64753;BME280;61095;52.454;16.948;2022-07-23T14:45:47;100542.22;;;23.97;57.88
64753;BME280;61095;52.454;16.948;2022-07-23T14:50:47;100518.09;;;23.96;57.84
64753;BME280;61095;52.454;16.948;2022-07-23T14:55:46;100518.06;;;24.17;57.69
64753;BME280;61095;52.454;16.948;2022-07-23T15:00:46;100526.69;;;24.31;57.14
64753;BME280;61095;52.454;16.948;2022-07-23T15:05:44;100531.28;;;24.41;56.58
64753;BME280;61095;52.454;16.948;2022-07-23T15:10:43;100524.78;;;24.53;56.19
64753;BME280;61095;52.454;16.948;2022-07-23T15:15:42;100506.75;;;24.53;55.78
64753;BME280;61095;52.454;16.948;2022-07-23T15:20:42;100525.38;;;24.56;55.25
64753;BME280;61095;52.454;16.948;2022-07-23T15:25:40;100523.72;;;24.65;54.90
64753;BME280;61095;52.454;16.948;2022-07-23T15:30:39;100526.41;;;24.65;54.84
64753;BME280;61095;52.454;16.948;2022-07-23T15:35:37;100524.44;;;24.67;54.91
64753;BME280;61095;52.454;16.948;2022-07-23T15:40:38;100516.34;;;24.67;54.47
64753;BME280;61095;52.454;16.948;2022-07-23T15:45:36;100526.66;;;24.62;55.29
64753;BME280;61095;52.454;16.948;2022-07-23T15:50:35;100520.81;;;24.57;55.52
64753;BME280;61095;52.454;16.948;2022-07-23T15:55:34;100527.03;;;24.48;55.88
64753;BME280;61095;52.454;16.948;2022-07-23T16:00:34;100535.53;;;24.43;56.04
64753;BME280;61095;52.454;16.948;2022-07-23T16:05:33;100544.47;;;24.44;55.62
64753;BME280;61095;52.454;16.948;2022-07-23T16:10:32;100544.88;;;24.39;55.36
64753;BME280;61095;52.454;16.948;2022-07-23T16:15:31;100553.38;;;24.34;55.62
64753;BME280;61095;52.454;16.948;2022-07-23T16:20:32;100538.34;;;24.32;54.97
64753;BME280;61095;52.454;16.948;2022-07-23T16:25:31;100540.41;;;24.28;55.02
64753;BME280;61095;52.454;16.948;2022-07-23T16:30:29;100540.81;;;24.24;54.90
64753;BME280;61095;52.454;16.948;2022-07-23T16:35:28;100534.13;;;24.18;54.79
64753;BME280;61095;52.454;16.948;2022-07-23T16:40:29;100542.47;;;24.15;54.75
64753;BME280;61095;52.454;16.948;2022-07-23T16:45:28;100526.56;;;24.12;54.78
64753;BME280;61095;52.454;16.948;2022-07-23T16:50:26;100529.66;;;24.08;54.98
64753;BME280;61095;52.454;16.948;2022-07-23T16:55:25;100532.03;;;24.01;55.16
64753;BME280;61095;52.454;16.948;2022-07-23T17:00:25;100534.28;;;23.96;54.87
64753;BME280;61095;52.454;16.948;2022-07-23T17:05:24;100546.53;;;23.89;55.37
64753;BME280;61095;52.454;16.948;2022-07-23T17:10:23;100544.31;;;23.94;55.77
64753;BME280;61095;52.454;16.948;2022-07-23T17:15:22;100544.53;;;24.02;55.22
64753;BME280;61095;52.454;16.948;2022-07-23T17:20:22;100537.88;;;24.06;55.39
64753;BME280;61095;52.454;16.948;2022-07-23T17:25:22;100547.53;;;24.09;55.14
64753;BME280;61095;52.454;16.948;2022-07-23T17:30:20;100541.03;;;24.11;54.85
64753;BME280;61095;52.454;16.948;2022-07-23T17:35:19;100536.75;;;24.09;55.07
64753;BME280;61095;52.454;16.948;2022-07-23T17:40:19;100543.09;;;23.98;54.97
64753;BME280;61095;52.454;16.948;2022-07-23T17:45:18;100540.88;;;23.92;55.37
64753;BME280;61095;52.454;16.948;2022-07-23T17:50:17;100537.97;;;23.84;55.23
64753;BME280;61095;52.454;16.948;2022-07-23T17:55:18;100540.47;;;23.76;55.42
64753;BME280;61095;52.454;16.948;2022-07-23T18:00:19;100537.31;;;23.70;55.61
64753;BME280;61095;52.454;16.948;2022-07-23T18:05:19;100542.84;;;23.69;55.67
64753;BME280;61095;52.454;16.948;2022-07-23T18:10:19;100547.88;;;23.62;54.73
64753;BME280;61095;52.454;16.948;2022-07-23T18:15:18;100554.38;;;23.60;54.61
64753;BME280;61095;52.454;16.948;2022-07-23T18:20:17;100565.56;;;23.55;54.01
64753;BME280;61095;52.454;16.948;2022-07-23T18:25:16;100571.47;;;23.49;53.59
64753;BME280;61095;52.454;16.948;2022-07-23T18:30:16;100587.28;;;23.43;53.09
64753;BME280;61095;52.454;16.948;2022-07-23T18:35:15;100591.69;;;23.32;53.10
64753;BME280;61095;52.454;16.948;2022-07-23T18:40:13;100591.69;;;23.21;53.42
64753;BME280;61095;52.454;16.948;2022-07-23T18:45:13;100592.94;;;23.06;53.42
64753;BME280;61095;52.454;16.948;2022-07-23T18:50:13;100600.56;;;22.90;53.34
64753;BME280;61095;52.454;16.948;2022-07-23T18:55:12;100603.22;;;22.78;53.61
64753;BME280;61095;52.454;16.948;2022-07-23T19:00:11;100606.91;;;22.66;53.57
64753;BME280;61095;52.454;16.948;2022-07-23T19:05:10;100601.63;;;22.54;54.17
64753;BME280;61095;52.454;16.948;2022-07-23T19:10:11;100619.44;;;22.43;53.86
64753;BME280;61095;52.454;16.948;2022-07-23T19:15:10;100624.91;;;22.31;54.08
64753;BME280;61095;52.454;16.948;2022-07-23T19:20:10;100623.06;;;22.20;54.42
64753;BME280;61095;52.454;16.948;2022-07-23T19:25:10;100623.03;;;22.09;54.62
64753;BME280;61095;52.454;16.948;2022-07-23T19:30:10;100626.78;;;21.95;54.71
64753;BME280;61095;52.454;16.948;2022-07-23T19:35:08;100636.38;;;21.87;54.89
64753;BME280;61095;52.454;16.948;2022-07-23T19:40:08;100639.84;;;21.76;55.34
64753;BME280;61095;52.454;16.948;2022-07-23T19:45:10;100638.59;;;21.69;55.21
64753;BME280;61095;52.454;16.948;2022-07-23T19:50:09;100647.44;;;21.58;55.72
64753;BME280;61095;52.454;16.948;2022-07-23T19:55:10;100652.41;;;21.51;55.82
64753;BME280;61095;52.454;16.948;2022-07-23T20:00:12;100649.53;;;21.42;56.07
64753;BME280;61095;52.454;16.948;2022-07-23T20:05:11;100650.19;;;21.33;56.09
64753;BME280;61095;52.454;16.948;2022-07-23T20:10:11;100650.03;;;21.23;56.66
64753;BME280;61095;52.454;16.948;2022-07-23T20:15:11;100659.50;;;21.16;57.10
64753;BME280;61095;52.454;16.948;2022-07-23T20:20:10;100658.28;;;21.07;57.02
64753;BME280;61095;52.454;16.948;2022-07-23T20:25:09;100666.78;;;21.01;57.09
64753;BME280;61095;52.454;16.948;2022-07-23T20:30:08;100668.16;;;20.94;57.22
64753;BME280;61095;52.454;16.948;2022-07-23T20:35:09;100677.63;;;20.87;57.64
64753;BME280;61095;52.454;16.948;2022-07-23T20:40:09;100682.44;;;20.82;57.87
64753;BME280;61095;52.454;16.948;2022-07-23T20:45:08;100676.78;;;20.74;57.69
64753;BME280;61095;52.454;16.948;2022-07-23T20:50:09;100680.84;;;20.67;57.86
64753;BME280;61095;52.454;16.948;2022-07-23T20:55:08;100685.69;;;20.62;57.91
64753;BME280;61095;52.454;16.948;2022-07-23T21:00:09;100680.63;;;20.57;58.19
64753;BME280;61095;52.454;16.948;2022-07-23T21:05:09;100691.75;;;20.51;58.84
64753;BME280;61095;52.454;16.948;2022-07-23T21:10:09;100704.41;;;20.49;58.46
64753;BME280;61095;52.454;16.948;2022-07-23T21:15:09;100701.28;;;20.42;59.21
64753;BME280;61095;52.454;16.948;2022-07-23T21:20:10;100706.13;;;20.37;59.28
64753;BME280;61095;52.454;16.948;2022-07-23T21:25:10;100713.09;;;20.40;59.45
64753;BME280;61095;52.454;16.948;2022-07-23T21:30:10;100720.25;;;20.39;59.55
64753;BME280;61095;52.454;16.948;2022-07-23T21:35:10;100728.41;;;20.38;59.25
64753;BME280;61095;52.454;16.948;2022-07-23T21:40:10;100731.19;;;20.36;59.48
64753;BME280;61095;52.454;16.948;2022-07-23T21:45:09;100736.84;;;20.32;59.26
64753;BME280;61095;52.454;16.948;2022-07-23T21:50:08;100738.47;;;20.34;59.31
64753;BME280;61095;52.454;16.948;2022-07-23T21:55:10;100743.38;;;20.27;59.97
64753;BME280;61095;52.454;16.948;2022-07-23T22:00:11;100750.84;;;20.22;59.42
64753;BME280;61095;52.454;16.948;2022-07-23T22:05:11;100755.66;;;20.17;59.73
64753;BME280;61095;52.454;16.948;2022-07-23T22:10:11;100768.41;;;20.14;59.31
64753;BME280;61095;52.454;16.948;2022-07-23T22:15:12;100752.06;;;20.04;58.96
64753;BME280;61095;52.454;16.948;2022-07-23T22:20:12;100750.66;;;19.98;58.81
64753;BME280;61095;52.454;16.948;2022-07-23T22:25:12;100749.44;;;19.90;58.30
64753;BME280;61095;52.454;16.948;2022-07-23T22:30:13;100753.47;;;19.83;57.98
64753;BME280;61095;52.454;16.948;2022-07-23T22:35:12;100750.53;;;19.73;57.86
64753;BME280;61095;52.454;16.948;2022-07-23T22:40:14;100753.25;;;19.59;58.00
64753;BME280;61095;52.454;16.948;2022-07-23T22:45:14;100752.16;;;19.47;58.27
64753;BME280;61095;52.454;16.948;2022-07-23T22:50:12;100753.59;;;19.39;58.49
64753;BME280;61095;52.454;16.948;2022-07-23T22:55:12;100752.66;;;19.25;58.47
64753;BME280;61095;52.454;16.948;2022-07-23T23:00:12;100749.41;;;19.20;58.23
64753;BME280;61095;52.454;16.948;2022-07-23T23:05:11;100755.41;;;19.10;58.25
64753;BME280;61095;52.454;16.948;2022-07-23T23:10:09;100756.09;;;18.99;58.42
64753;BME280;61095;52.454;16.948;2022-07-23T23:15:10;100751.50;;;18.87;58.45
64753;BME280;61095;52.454;16.948;2022-07-23T23:20:09;100758.25;;;18.78;58.88
64753;BME280;61095;52.454;16.948;2022-07-23T23:25:08;100762.16;;;18.72;58.67
64753;BME280;61095;52.454;16.948;2022-07-23T23:30:10;100761.81;;;18.63;59.02
64753;BME280;61095;52.454;16.948;2022-07-23T23:35:09;100771.91;;;18.58;59.17
64753;BME280;61095;52.454;16.948;2022-07-23T23:40:08;100781.25;;;18.51;58.91
64753;BME280;61095;52.454;16.948;2022-07-23T23:45:10;100777.97;;;18.46;59.06
64753;BME280;61095;52.454;16.948;2022-07-23T23:50:09;100782.84;;;18.39;59.50
64753;BME280;61095;52.454;16.948;2022-07-23T23:55:08;100788.53;;;18.33;59.58
